createdAt,value
2019-06-07T00:00:39.702Z,23.57
2019-06-07T00:04:38.161Z,22.40
2019-06-07T00:08:44.502Z,22.03
2019-06-07T00:12:50.840Z,26.27
2019-06-07T00:16:57.514Z,24.20
2019-06-07T00:21:03.927Z,23.53
2019-06-07T00:25:13.364Z,22.00
2019-06-07T00:29:21.496Z,21.43
2019-06-07T00:33:27.042Z,24.50
2019-06-07T00:37:51.391Z,24.63
2019-06-07T00:41:57.921Z,26.10
2019-06-07T00:46:04.280Z,26.50
2019-06-07T00:50:13.407Z,24.40
2019-06-07T00:54:21.981Z,25.47
2019-06-07T00:58:29.572Z,24.47
2019-06-07T01:02:35.950Z,25.83
2019-06-07T01:06:42.250Z,26.80
2019-06-07T01:10:53.815Z,27.90
2019-06-07T01:14:56.387Z,28.33
2019-06-07T01:19:02.621Z,30.17
2019-06-07T01:23:51.982Z,33.27
2019-06-07T01:27:18.992Z,33.37
2019-06-07T01:31:28.535Z,32.57
2019-06-07T01:35:33.318Z,33.80
2019-06-07T01:39:39.630Z,36.10
2019-06-07T01:43:46.974Z,37.93
2019-06-07T01:47:53.471Z,34.80
2019-06-07T01:52:00.015Z,35.37
2019-06-07T01:56:06.407Z,37.17
2019-06-07T02:00:14.507Z,39.57
2019-06-07T02:04:23.318Z,40.83
2019-06-07T02:08:34.090Z,40.40
2019-06-07T02:12:43.082Z,48.17
2019-06-07T02:16:44.890Z,43.37
2019-06-07T02:20:51.227Z,43.13
2019-06-07T02:25:34.437Z,38.33
2019-06-07T02:29:05.594Z,41.87
2019-06-07T02:33:11.874Z,38.57
2019-06-07T02:37:18.133Z,41.17
2019-06-07T02:41:27.623Z,38.73
2019-06-07T02:45:37.777Z,34.73
2019-06-07T02:49:42.247Z,38.50
2019-06-07T02:53:48.528Z,36.43
2019-06-07T02:57:55.030Z,36.17
2019-06-07T03:02:01.965Z,38.33
2019-06-07T03:06:11.182Z,38.17
2019-06-07T03:10:17.530Z,34.20
2019-06-07T03:14:26.062Z,31.83
2019-06-07T03:18:50.426Z,31.70
2019-06-07T03:22:59.960Z,32.13
2019-06-07T03:31:15.241Z,36.27
2019-06-07T03:35:21.877Z,37.10
2019-06-07T03:39:29.478Z,35.10
2019-06-07T03:43:40.397Z,30.27
2019-06-07T03:47:44.046Z,38.13
2019-06-07T03:51:50.386Z,29.27
2019-06-07T03:55:56.734Z,24.90
2019-06-07T04:00:03.978Z,23.23
2019-06-07T04:04:11.155Z,21.37
2019-06-07T04:08:17.425Z,19.07
2019-06-07T04:12:25.750Z,16.97
2019-06-07T04:16:34.941Z,47.80
2019-06-07T04:20:41.490Z,19.20
2019-06-07T04:24:48.045Z,18.10
2019-06-07T04:29:31.629Z,18.20
2019-06-07T04:33:02.335Z,17.17
2019-06-07T04:37:09.898Z,16.43
2019-06-07T04:41:38.269Z,17.73
2019-06-07T04:45:51.843Z,15.47
2019-06-07T04:50:04.220Z,17.23
2019-06-07T04:54:31.047Z,17.30
2019-06-07T04:58:41.139Z,19.63
2019-06-07T05:02:46.610Z,18.83
2019-06-07T05:06:55.721Z,19.40
2019-06-07T05:11:02.879Z,19.57
2019-06-07T05:15:25.437Z,19.17
2019-06-07T05:19:49.850Z,20.10
2019-06-07T05:24:06.619Z,21.40
2019-06-07T05:28:04.069Z,19.53
2019-06-07T05:32:11.193Z,19.17
2019-06-07T05:36:37.568Z,19.83
2019-06-07T05:40:48.722Z,20.37
2019-06-07T05:44:52.419Z,21.03
2019-06-07T05:48:58.627Z,22.03
2019-06-07T05:53:05.660Z,21.97
2019-06-07T05:57:12.343Z,21.77
2019-06-07T06:05:34.491Z,23.20
2019-06-07T06:09:50.262Z,21.30
2019-06-07T06:14:06.581Z,22.80
2019-06-07T06:18:04.539Z,24.43
2019-06-07T06:22:10.789Z,24.17
2019-06-07T06:26:17.094Z,23.90
2019-06-07T06:30:24.049Z,23.03
2019-06-07T06:34:30.414Z,20.80
2019-06-07T06:38:38.268Z,22.60
2019-06-07T06:42:48.152Z,22.07
2019-06-07T06:46:58.058Z,21.37
2019-06-07T06:51:03.966Z,20.20
2019-06-07T06:55:11.838Z,19.73
2019-06-07T07:04:00.287Z,23.43
2019-06-07T07:07:53.004Z,21.47
2019-06-07T07:12:11.326Z,20.17
2019-06-07T07:16:07.416Z,21.17
2019-06-07T07:20:13.865Z,18.27
2019-06-07T07:24:22.233Z,18.20
2019-06-07T07:28:28.455Z,25.93
2019-06-07T07:32:34.893Z,17.43
2019-06-07T07:36:41.306Z,17.03
2019-06-07T07:41:15.122Z,17.47
2019-06-07T07:45:08.569Z,16.50
2019-06-07T07:49:15.122Z,18.80
2019-06-07T07:53:47.958Z,18.17
2019-06-07T07:57:38.634Z,19.00
2019-06-07T08:01:46.111Z,18.73
2019-06-07T08:05:56.953Z,18.43
2019-06-07T08:10:07.850Z,19.77
2019-06-07T08:14:31.058Z,19.77
2019-06-07T08:18:37.402Z,21.50
2019-06-07T08:22:45.853Z,20.87
2019-06-07T08:27:12.984Z,18.10
2019-06-07T08:31:06.714Z,17.73
2019-06-07T08:39:35.149Z,19.07
2019-06-07T08:44:00.580Z,16.67
2019-06-07T08:48:26.622Z,16.90
2019-06-07T08:52:14.172Z,16.53
2019-06-07T08:56:26.318Z,15.33
2019-06-07T09:00:51.433Z,14.30
2019-06-07T09:05:03.228Z,15.83
2019-06-07T09:09:08.602Z,14.23
2019-06-07T09:13:26.918Z,16.00
2019-06-07T09:17:34.206Z,14.50
2019-06-07T09:21:44.563Z,13.03
2019-06-07T09:26:02.568Z,15.03
2019-06-07T09:30:04.723Z,14.13
2019-06-07T09:34:13.747Z,14.60
2019-06-07T09:38:33.716Z,14.90
2019-06-07T09:42:45.766Z,13.70
2019-06-07T09:47:12.901Z,12.87
2019-06-07T09:51:06.061Z,13.40
2019-06-07T09:55:22.940Z,12.77
2019-06-07T09:59:31.624Z,12.70
2019-06-07T10:03:38.824Z,14.17
2019-06-07T10:08:00.024Z,10.90
2019-06-07T10:11:53.554Z,9.53
2019-06-07T10:16:00.826Z,9.77
2019-06-07T10:20:25.344Z,8.30
2019-06-07T10:24:50.093Z,8.73
2019-06-07T10:29:08.355Z,7.87
2019-06-07T10:33:14.723Z,7.77
2019-06-07T10:37:28.574Z,8.17
2019-06-07T10:41:34.825Z,8.27
2019-06-07T10:45:42.492Z,8.17
2019-06-07T10:49:48.737Z,8.73
2019-06-07T10:53:55.105Z,8.37
2019-06-07T10:58:02.729Z,8.13
2019-06-07T11:02:24.269Z,8.23
2019-06-07T11:06:30.638Z,8.27
2019-06-07T11:10:37.525Z,8.60
2019-06-07T11:14:43.781Z,8.77
2019-06-07T11:18:50.011Z,9.00
2019-06-07T11:22:56.329Z,8.10
2019-06-07T11:27:20.922Z,7.77
2019-06-07T11:31:27.314Z,8.23
2019-06-07T11:35:34.389Z,7.67
2019-06-07T11:39:40.897Z,8.33
2019-06-07T11:43:47.338Z,7.30
2019-06-07T11:47:53.774Z,6.70
2019-06-07T11:52:00.040Z,7.20
2019-06-07T11:56:07.755Z,7.03
2019-06-07T12:00:18.249Z,6.67
2019-06-07T12:04:34.366Z,8.50
2019-06-07T12:08:32.639Z,8.07
2019-06-07T12:12:38.915Z,6.57
2019-06-07T12:16:45.303Z,7.23
2019-06-07T12:20:51.934Z,7.37
2019-06-07T12:24:58.258Z,5.50
2019-06-07T12:29:04.808Z,5.67
2019-06-07T12:33:11.340Z,5.40
2019-06-07T12:37:20.636Z,4.80
2019-06-07T12:41:26.141Z,4.50
2019-06-07T12:45:44.533Z,4.60
2019-06-07T12:49:40.816Z,4.63
2019-06-07T12:53:47.547Z,4.90
2019-06-07T12:57:54.042Z,4.67
2019-06-07T13:02:05.265Z,4.37
2019-06-07T13:06:11.586Z,4.30
2019-06-07T13:10:20.066Z,4.30
2019-06-07T13:14:44.897Z,4.57
2019-06-07T13:18:54.766Z,4.70
2019-06-07T13:23:01.017Z,4.40
2019-06-07T13:27:07.342Z,4.80
2019-06-07T13:31:32.473Z,4.37
2019-06-07T13:35:53.881Z,5.10
2019-06-07T13:40:00.241Z,5.03
2019-06-07T13:44:06.612Z,4.90
2019-06-07T13:48:30.723Z,5.70
2019-06-07T13:52:55.066Z,4.97
2019-06-07T13:57:03.069Z,6.00
2019-06-07T14:01:09.784Z,5.50
2019-06-07T14:05:34.159Z,6.33
2019-06-07T14:09:43.659Z,5.50
2019-06-07T14:13:52.858Z,5.87
2019-06-07T14:18:03.128Z,6.27
2019-06-07T14:22:11.039Z,6.33
2019-06-07T14:26:35.486Z,6.20
2019-06-07T14:30:55.191Z,5.80
2019-06-07T14:35:02.592Z,5.87
2019-06-07T14:39:09.001Z,6.43
2019-06-07T14:43:34.240Z,6.67
2019-06-07T14:47:45.982Z,6.90
2019-06-07T14:51:52.306Z,6.73
2019-06-07T14:55:58.742Z,7.23
2019-06-07T15:00:13.954Z,6.77
2019-06-07T15:04:41.925Z,7.23
2019-06-07T15:08:53.899Z,7.50
2019-06-07T15:13:00.270Z,7.87
2019-06-07T15:17:06.613Z,7.63
2019-06-07T15:21:12.886Z,7.27
2019-06-07T15:25:19.206Z,6.73
2019-06-07T15:29:25.501Z,7.33
2019-06-07T15:33:31.893Z,6.93
2019-06-07T15:37:55.973Z,7.13
2019-06-07T15:42:02.226Z,6.43
2019-06-07T15:46:13.186Z,7.00
2019-06-07T15:50:38.335Z,6.47
2019-06-07T15:54:46.094Z,7.00
2019-06-07T15:58:52.355Z,7.03
2019-06-07T16:03:00.975Z,7.20
2019-06-07T16:07:07.461Z,6.77
2019-06-07T16:11:16.917Z,6.73
2019-06-07T16:15:28.694Z,6.53
2019-06-07T16:19:39.055Z,7.10
2019-06-07T16:23:44.139Z,7.47
2019-06-07T16:27:50.747Z,7.90
2019-06-07T16:31:57.022Z,7.93
2019-06-07T16:36:03.287Z,8.57
2019-06-07T16:40:11.650Z,7.80
2019-06-07T16:44:17.974Z,8.17
2019-06-07T16:48:24.410Z,8.30
2019-06-07T16:52:30.674Z,7.97
2019-06-07T16:56:44.432Z,8.40
2019-06-07T17:00:48.567Z,8.23
2019-06-07T17:04:55.991Z,8.10
2019-06-07T17:09:07.218Z,7.67
2019-06-07T17:13:14.070Z,7.77
2019-06-07T17:17:20.338Z,8.50
2019-06-07T17:21:26.671Z,8.53
2019-06-07T17:25:33.496Z,8.43
2019-06-07T17:29:43.648Z,7.57
2019-06-07T17:33:54.991Z,11.43
2019-06-07T17:38:01.245Z,9.00
2019-06-07T17:42:07.513Z,9.17
2019-06-07T17:46:13.774Z,8.87
2019-06-07T17:50:21.571Z,8.90
2019-06-07T17:54:27.823Z,8.50
2019-06-07T17:58:34.223Z,8.47
2019-06-07T18:02:40.626Z,9.17
2019-06-07T18:06:47.728Z,9.23
2019-06-07T18:10:54.722Z,8.53
2019-06-07T18:15:22.698Z,8.10
2019-06-07T18:19:33.137Z,9.30
2019-06-07T18:23:57.203Z,8.03
2019-06-07T18:28:22.650Z,9.53
2019-06-07T18:32:29.440Z,9.47
2019-06-07T18:36:35.748Z,9.53
2019-06-07T18:40:42.538Z,8.90
2019-06-07T18:45:07.922Z,9.70
2019-06-07T18:49:14.476Z,9.33
2019-06-07T18:53:23.316Z,9.37
2019-06-07T18:57:32.395Z,8.63
2019-06-07T19:01:38.734Z,8.57
2019-06-07T19:06:03.409Z,8.97
2019-06-07T19:10:11.653Z,9.20
2019-06-07T19:14:17.902Z,8.87
2019-06-07T19:18:24.229Z,9.50
2019-06-07T19:22:32.290Z,8.60
2019-06-07T19:26:39.687Z,9.30
2019-06-07T19:30:45.921Z,9.60
2019-06-07T19:34:53.254Z,9.23
2019-06-07T19:39:00.082Z,9.57
2019-06-07T19:43:06.783Z,10.13
2019-06-07T19:47:13.022Z,9.83
2019-06-07T19:51:20.423Z,9.73
2019-06-07T19:55:27.070Z,10.00
2019-06-07T19:59:33.963Z,9.47
2019-06-07T20:03:43.036Z,9.83
2019-06-07T20:07:54.332Z,10.60
2019-06-07T20:12:02.883Z,10.47
2019-06-07T20:16:21.101Z,11.00
2019-06-07T20:20:29.972Z,11.03
2019-06-07T20:24:38.026Z,10.97
2019-06-07T20:28:44.126Z,10.97
2019-06-07T20:32:51.514Z,11.73
2019-06-07T20:36:57.900Z,11.73
2019-06-07T20:41:05.397Z,11.60
2019-06-07T20:45:12.071Z,10.73
2019-06-07T20:49:20.003Z,10.83
2019-06-07T20:53:26.280Z,11.00
2019-06-07T20:57:32.566Z,9.83
2019-06-07T21:01:54.379Z,9.13
2019-06-07T21:06:03.451Z,8.57
2019-06-07T21:10:11.332Z,8.60
2019-06-07T21:14:21.450Z,8.90
2019-06-07T21:18:27.915Z,9.00
2019-06-07T21:22:34.208Z,8.60
2019-06-07T21:26:40.477Z,8.23
2019-06-07T21:30:52.661Z,8.80
2019-06-07T21:35:17.895Z,8.40
2019-06-07T21:39:42.387Z,8.47
2019-06-07T21:43:48.637Z,8.80
2019-06-07T21:47:54.884Z,9.07
2019-06-07T21:52:02.487Z,8.63
2019-06-07T21:56:09.139Z,9.00
2019-06-07T22:00:54.949Z,9.17
2019-06-07T22:05:01.542Z,8.87
2019-06-07T22:09:09.761Z,9.00
2019-06-07T22:13:16.170Z,9.07
2019-06-07T22:17:22.418Z,9.07
2019-06-07T22:21:28.855Z,9.40
2019-06-07T22:25:35.149Z,8.73
2019-06-07T22:29:41.405Z,7.97
2019-06-07T22:33:47.635Z,8.10
2019-06-07T22:37:54.166Z,8.00
2019-06-07T22:42:00.418Z,8.00
2019-06-07T22:46:06.869Z,7.40
2019-06-07T22:50:14.447Z,7.70
2019-06-07T22:54:20.723Z,7.80
2019-06-07T22:58:27.461Z,7.73
2019-06-07T23:02:35.911Z,7.50
2019-06-07T23:06:42.238Z,7.73
2019-06-07T23:10:48.606Z,8.23
2019-06-07T23:14:54.867Z,7.70
2019-06-07T23:19:01.108Z,7.90
2019-06-07T23:23:07.513Z,8.20
2019-06-07T23:27:14.453Z,6.20
2019-06-07T23:31:20.919Z,5.07
2019-06-07T23:35:27.288Z,2.93
2019-06-07T23:39:33.498Z,2.70
2019-06-07T23:43:39.821Z,2.90
2019-06-07T23:47:46.153Z,2.57
2019-06-07T23:52:11.704Z,2.40
2019-06-07T23:56:36.270Z,2.77
